Time;durP1;ratioP1;P1;durP2;ratioP2;P2;SDS_P1;SDS_P2;PMS_P1;PMS_P2;Temp;Humidity;BMP_temperature;BMP_pressure;BME280_temperature;BME280_humidity;BME280_pressure;Samples;Min_cycle;Max_cycle;Signal;HPM_P1;HPM_P2
2023/10/16 00:01:09;;;;;;;3.33;0.35;;;7.90;82.40;;;;;;5027550;28;20515;-82
2023/10/16 00:03:38;;;;;;;2.67;0.30;;;7.90;82.50;;;;;;5027311;28;20591;-83
2023/10/16 00:06:06;;;;;;;6.30;0.60;;;7.90;82.60;;;;;;5026775;28;20049;-85
2023/10/16 00:08:35;;;;;;;3.00;0.30;;;7.90;82.70;;;;;;4992027;28;20293;-85
2023/10/16 00:11:04;;;;;;;3.53;0.60;;;7.90;82.80;;;;;;5007678;28;20055;-83
2023/10/16 00:13:35;;;;;;;3.70;0.40;;;7.90;82.80;;;;;;4991027;28;20054;-83
2023/10/16 00:16:04;;;;;;;4.13;0.25;;;8.00;82.80;;;;;;4990653;28;20043;-83
2023/10/16 00:18:34;;;;;;;3.40;0.50;;;8.00;83.00;;;;;;4990086;28;20145;-83
2023/10/16 00:21:04;;;;;;;5.60;0.50;;;8.00;82.90;;;;;;4989991;28;20369;-83
2023/10/16 00:23:37;;;;;;;2.72;0.40;;;8.00;82.90;;;;;;4989775;28;20061;-83
2023/10/16 00:26:06;;;;;;;2.67;0.30;;;8.00;82.80;;;;;;5005933;28;20043;-83
2023/10/16 00:28:33;;;;;;;2.35;0.30;;;8.00;82.80;;;;;;5009055;28;20050;-83
2023/10/16 00:31:00;;;;;;;4.70;0.40;;;8.00;82.80;;;;;;5009903;28;20042;-83
2023/10/16 00:33:29;;;;;;;4.18;0.47;;;8.00;82.80;;;;;;5007367;28;20862;-83
2023/10/16 00:35:56;;;;;;;4.80;0.40;;;7.90;82.90;;;;;;4991499;28;20046;-83
2023/10/16 00:38:25;;;;;;;4.68;0.38;;;7.90;83.00;;;;;;5009368;28;20514;-83
2023/10/16 00:41:10;;;;;;;2.78;0.40;;;7.90;83.10;;;;;;5010522;28;20112;-83
2023/10/16 00:43:37;;;;;;;5.00;0.40;;;7.90;83.20;;;;;;5010760;28;20053;-83
2023/10/16 00:46:06;;;;;;;3.58;0.40;;;7.90;83.10;;;;;;5027133;28;20254;-83
2023/10/16 00:48:36;;;;;;;4.47;0.50;;;7.90;83.20;;;;;;4991536;28;20575;-83
2023/10/16 00:51:07;;;;;;;3.00;0.50;;;8.00;83.30;;;;;;5007448;28;20058;-83
2023/10/16 00:53:34;;;;;;;4.05;0.50;;;7.90;83.40;;;;;;4990861;28;20074;-83
2023/10/16 00:56:08;;;;;;;3.40;0.40;;;7.90;83.40;;;;;;4990798;28;20556;-83
2023/10/16 00:58:35;;;;;;;2.53;0.30;;;8.00;83.50;;;;;;5009654;28;20300;-82
2023/10/16 01:01:04;;;;;;;3.33;0.57;;;8.00;83.80;;;;;;5010440;28;20460;-83
2023/10/16 01:03:37;;;;;;;2.20;0.40;;;7.90;83.60;;;;;;5010433;28;20046;-83
2023/10/16 01:06:09;;;;;;;5.00;0.40;;;8.00;83.80;;;;;;5010086;28;20601;-83
2023/10/16 01:08:43;;;;;;;4.17;0.43;;;7.90;83.70;;;;;;5010060;28;20490;-83
2023/10/16 01:11:10;;;;;;;6.70;0.60;;;8.00;84.10;;;;;;5026557;28;20418;-83
2023/10/16 01:13:39;;;;;;;2.95;0.40;;;8.00;84.20;;;;;;4991978;28;20063;-83
2023/10/16 01:16:09;;;;;;;5.38;0.70;;;8.00;84.40;;;;;;5008672;28;20057;-83
2023/10/16 01:18:38;;;;;;;4.35;0.57;;;8.00;84.40;;;;;;5026737;28;20054;-83
2023/10/16 01:21:08;;;;;;;2.87;0.30;;;8.00;84.50;;;;;;5027000;28;20054;-83
2023/10/16 01:23:36;;;;;;;3.95;0.40;;;8.00;84.50;;;;;;4992487;28;20258;-83
2023/10/16 01:26:04;;;;;;;3.00;0.50;;;8.00;84.50;;;;;;5006697;28;20726;-83
2023/10/16 01:28:32;;;;;;;3.15;0.40;;;8.00;84.60;;;;;;5006682;28;20508;-83
2023/10/16 01:31:00;;;;;;;4.65;0.35;;;8.00;84.60;;;;;;5010039;28;20050;-83
2023/10/16 01:33:30;;;;;;;2.67;0.27;;;8.00;84.70;;;;;;5026404;28;20534;-83
2023/10/16 01:35:57;;;;;;;2.28;0.30;;;8.00;84.80;;;;;;5009554;28;20265;-82
2023/10/16 01:38:27;;;;;;;3.65;0.30;;;8.00;84.90;;;;;;5009320;28;20539;-81
2023/10/16 01:41:05;;;;;;;3.63;0.40;;;8.00;85.00;;;;;;5026594;28;20074;-81
2023/10/16 01:43:33;;;;;;;2.60;0.30;;;8.00;85.30;;;;;;5013199;28;20058;-81
2023/10/16 01:46:02;;;;;;;2.27;0.30;;;8.00;85.50;;;;;;4992886;28;20138;-81
2023/10/16 01:48:29;;;;;;;3.35;0.45;;;8.00;85.50;;;;;;5008978;28;20357;-82
2023/10/16 01:50:56;;;;;;;3.72;0.30;;;8.00;85.50;;;;;;4993123;28;20050;-81
2023/10/16 01:53:25;;;;;;;3.35;0.40;;;8.00;85.70;;;;;;5007355;28;20061;-82
2023/10/16 01:55:54;;;;;;;3.10;0.20;;;8.00;85.60;;;;;;5012319;28;20050;-81
2023/10/16 01:58:23;;;;;;;2.30;0.30;;;8.00;85.50;;;;;;5029238;28;20120;-81
2023/10/16 02:00:52;;;;;;;2.95;0.30;;;8.00;85.70;;;;;;5012356;28;20281;-82
2023/10/16 02:03:19;;;;;;;2.58;0.30;;;8.00;85.70;;;;;;5016143;28;20101;-81
2023/10/16 02:05:47;;;;;;;2.75;0.40;;;8.00;85.70;;;;;;5009720;28;20054;-82
2023/10/16 02:08:14;;;;;;;2.92;0.40;;;8.10;85.70;;;;;;4992752;28;20559;-82
2023/10/16 02:10:42;;;;;;;2.47;0.30;;;8.10;85.80;;;;;;4993156;28;20046;-81
2023/10/16 02:13:10;;;;;;;2.90;0.40;;;8.10;85.70;;;;;;5003812;28;20349;-82
2023/10/16 02:15:42;;;;;;;1.92;0.20;;;8.10;85.80;;;;;;5012694;28;20066;-81
2023/10/16 02:18:18;;;;;;;2.40;0.30;;;8.10;85.90;;;;;;5028651;28;20057;-83
2023/10/16 02:20:45;;;;;;;3.70;0.40;;;8.10;85.90;;;;;;5012706;28;20534;-82
2023/10/16 02:23:13;;;;;;;3.00;0.30;;;8.10;86.00;;;;;;5028393;28;20056;-82
2023/10/16 02:25:40;;;;;;;3.58;0.55;;;8.10;86.10;;;;;;5012129;28;20342;-82
2023/10/16 02:28:07;;;;;;;3.28;0.50;;;8.10;86.00;;;;;;5001815;28;20046;-82
2023/10/16 02:30:38;;;;;;;3.50;0.60;;;8.20;86.00;;;;;;4992576;28;20046;-82
2023/10/16 02:33:20;;;;;;;4.10;0.50;;;8.20;86.00;;;;;;5009058;28;20058;-82
2023/10/16 02:35:48;;;;;;;6.63;0.83;;;8.20;86.00;;;;;;4992463;28;20048;-82
2023/10/16 02:38:23;;;;;;;3.97;0.90;;;8.20;85.80;;;;;;4992236;28;20282;-82
2023/10/16 02:40:53;;;;;;;3.80;0.70;;;8.10;85.70;;;;;;4992056;28;20430;-82
2023/10/16 02:43:21;;;;;;;4.35;0.90;;;8.10;85.70;;;;;;5022680;28;20103;-82
2023/10/16 02:45:51;;;;;;;2.30;0.40;;;8.10;85.80;;;;;;5011880;28;20516;-82
2023/10/16 02:48:21;;;;;;;5.03;1.30;;;8.10;85.90;;;;;;5028140;28;20655;-82
2023/10/16 02:50:53;;;;;;;3.80;1.15;;;8.10;85.80;;;;;;5011868;28;20264;-81
2023/10/16 02:53:22;;;;;;;5.15;1.20;;;8.00;85.90;;;;;;5010656;28;20150;-82
2023/10/16 02:55:53;;;;;;;5.20;1.33;;;8.00;85.90;;;;;;5011860;28;20081;-81
2023/10/16 02:58:22;;;;;;;4.68;1.42;;;8.00;86.00;;;;;;5001639;28;20461;-82
2023/10/16 03:00:55;;;;;;;4.07;1.53;;;8.00;86.00;;;;;;5008681;28;20394;-82
2023/10/16 03:03:26;;;;;;;5.20;1.70;;;8.00;85.90;;;;;;4992266;28;20725;-82
2023/10/16 03:05:55;;;;;;;7.90;1.75;;;8.00;86.00;;;;;;4991754;28;20055;-82
2023/10/16 03:08:29;;;;;;;4.57;1.60;;;8.00;86.10;;;;;;4992381;28;20241;-82
2023/10/16 03:10:57;;;;;;;6.25;1.80;;;8.00;85.90;;;;;;4992179;28;20072;-82
2023/10/16 03:13:25;;;;;;;7.03;2.03;;;8.00;85.80;;;;;;4991909;28;20056;-82
2023/10/16 03:15:59;;;;;;;6.55;2.03;;;8.00;85.80;;;;;;4991833;28;20296;-82
2023/10/16 03:18:29;;;;;;;3.70;1.33;;;8.00;85.80;;;;;;4991836;28;20042;-82
2023/10/16 03:21:07;;;;;;;5.07;1.48;;;7.90;85.80;;;;;;5007928;28;20263;-82
2023/10/16 03:23:34;;;;;;;6.90;2.20;;;7.90;85.80;;;;;;5018707;28;20124;-82
2023/10/16 03:26:02;;;;;;;5.27;1.83;;;7.80;85.90;;;;;;5011057;28;20078;-82
2023/10/16 03:28:29;;;;;;;6.93;1.80;;;7.80;85.90;;;;;;5001008;28;20281;-82
2023/10/16 03:31:02;;;;;;;5.22;1.60;;;7.80;85.90;;;;;;4991425;28;20608;-82
2023/10/16 03:33:32;;;;;;;6.50;1.75;;;7.80;86.20;;;;;;5000990;28;20524;-82
2023/10/16 03:36:02;;;;;;;6.57;1.77;;;7.80;86.30;;;;;;5027652;28;20081;-82
2023/10/16 03:38:35;;;;;;;4.37;1.23;;;7.80;86.30;;;;;;5002119;28;20517;-82
2023/10/16 03:41:04;;;;;;;6.75;1.63;;;7.80;86.60;;;;;;5007883;28;20308;-82
2023/10/16 03:43:32;;;;;;;5.55;1.55;;;7.80;86.60;;;;;;5000518;28;20058;-82
2023/10/16 03:45:59;;;;;;;5.95;1.60;;;7.80;86.80;;;;;;5027315;28;20054;-82
2023/10/16 03:48:26;;;;;;;5.10;1.67;;;7.80;87.00;;;;;;5019037;28;20046;-83
2023/10/16 03:51:00;;;;;;;4.13;1.53;;;7.80;87.20;;;;;;5007857;28;20367;-82
2023/10/16 03:53:32;;;;;;;6.70;1.70;;;7.80;87.30;;;;;;4991225;28;20266;-82
2023/10/16 03:55:59;;;;;;;4.90;1.60;;;7.80;87.50;;;;;;5007552;28;20057;-82
2023/10/16 03:58:27;;;;;;;5.32;1.63;;;7.80;87.40;;;;;;5014708;28;20136;-83
2023/10/16 04:00:56;;;;;;;5.55;1.60;;;7.80;87.40;;;;;;5010989;28;20400;-83
2023/10/16 04:03:25;;;;;;;4.33;1.43;;;7.90;87.40;;;;;;5019886;28;20054;-82
2023/10/16 04:05:53;;;;;;;6.10;1.33;;;7.90;87.50;;;;;;4990786;28;20337;-82
2023/10/16 04:08:23;;;;;;;4.25;1.42;;;7.90;87.60;;;;;;5007151;28;20050;-82
2023/10/16 04:10:53;;;;;;;4.13;1.20;;;7.90;87.80;;;;;;5007457;28;20062;-82
2023/10/16 04:13:25;;;;;;;4.10;1.25;;;8.00;88.30;;;;;;4996912;28;20436;-82
2023/10/16 04:16:13;;;;;;;5.03;1.20;;;8.00;88.10;;;;;;5026815;28;20042;-83
2023/10/16 04:18:40;;;;;;;4.55;1.10;;;8.00;88.00;;;;;;5027138;28;20388;-82
2023/10/16 04:21:37;;;;;;;4.22;1.27;;;8.00;88.20;;;;;;5027065;28;20049;-82
2023/10/16 04:24:19;;;;;;;3.80;1.23;;;8.00;88.30;;;;;;5002913;28;20056;-82
2023/10/16 04:26:57;;;;;;;3.53;0.98;;;8.00;88.10;;;;;;5028594;28;20592;-82
2023/10/16 04:29:28;;;;;;;4.33;1.37;;;8.00;88.40;;;;;;5012598;28;20058;-82
2023/10/16 04:32:07;;;;;;;3.50;0.90;;;8.00;88.20;;;;;;4990772;28;20262;-82
2023/10/16 04:34:34;;;;;;;4.97;1.30;;;8.00;88.50;;;;;;4990797;28;20058;-81
2023/10/16 04:43:07;;;;;;;5.17;1.43;;;8.10;88.50;;;;;;4969255;28;20121;-81
2023/10/16 04:45:54;;;;;;;3.58;0.93;;;8.10;88.50;;;;;;4994270;28;20273;-81
2023/10/16 04:48:28;;;;;;;6.05;1.52;;;8.20;88.70;;;;;;4994227;28;20989;-82
2023/10/16 04:53:48;;;;;;;3.88;1.20;;;8.20;88.60;;;;;;5003941;28;20078;-82
2023/10/16 04:56:30;;;;;;;6.60;1.47;;;8.20;88.60;;;;;;5006767;28;20115;-82
2023/10/16 04:59:11;;;;;;;4.18;1.05;;;8.20;88.60;;;;;;5014667;28;20755;-82
2023/10/16 05:02:10;;;;;;;3.85;1.08;;;8.20;88.50;;;;;;5026500;28;20679;-82
2023/10/16 05:07:34;;;;;;;6.28;1.23;;;8.30;88.50;;;;;;4966029;28;20530;-82
2023/10/16 05:10:17;;;;;;;3.57;1.10;;;8.30;88.40;;;;;;5009785;28;20205;-82
2023/10/16 05:21:19;;;;;;;3.90;1.20;;;8.40;88.50;;;;;;5009048;28;20134;-82
2023/10/16 06:15:55;;;;;;;2.92;0.70;;;8.40;88.50;;;;;;5008933;28;20057;-83
2023/10/16 06:18:27;;;;;;;4.47;0.87;;;8.50;88.50;;;;;;4992777;28;20054;-82
2023/10/16 06:21:00;;;;;;;4.07;1.00;;;8.50;88.50;;;;;;5028424;28;20722;-83
2023/10/16 06:23:29;;;;;;;3.78;0.65;;;8.50;88.50;;;;;;5026520;28;20129;-82
2023/10/16 06:26:01;;;;;;;3.50;0.80;;;8.50;88.50;;;;;;5023740;28;20635;-81
2023/10/16 06:28:28;;;;;;;3.50;0.70;;;8.50;88.50;;;;;;5009538;28;20049;-81
2023/10/16 06:30:55;;;;;;;3.97;0.87;;;8.50;88.60;;;;;;5008933;28;20126;-81
2023/10/16 06:33:21;;;;;;;6.60;1.10;;;8.50;88.70;;;;;;5009875;28;20262;-82
2023/10/16 06:35:52;;;;;;;3.28;0.80;;;8.50;88.60;;;;;;5042194;28;20626;-80
2023/10/16 06:38:22;;;;;;;4.80;0.75;;;8.50;88.70;;;;;;5026119;28;20052;-80
2023/10/16 06:40:55;;;;;;;6.25;0.77;;;8.60;88.70;;;;;;5025944;28;20064;-80
2023/10/16 06:43:25;;;;;;;2.50;0.80;;;8.60;88.70;;;;;;5024265;28;20562;-81
2023/10/16 06:45:55;;;;;;;4.28;0.98;;;8.60;88.90;;;;;;5028674;28;20259;-81
2023/10/16 06:48:22;;;;;;;4.80;0.90;;;8.60;88.80;;;;;;5027720;28;20057;-81
2023/10/16 06:50:54;;;;;;;3.42;0.77;;;8.60;88.90;;;;;;5027423;28;20512;-81
2023/10/16 06:53:22;;;;;;;5.03;1.05;;;8.60;88.90;;;;;;5027643;28;20053;-81
2023/10/16 06:55:50;;;;;;;4.00;0.90;;;8.60;88.80;;;;;;5010791;28;20049;-81
2023/10/16 06:58:20;;;;;;;4.13;0.98;;;8.60;88.90;;;;;;5010789;28;20605;-81
2023/10/16 07:00:48;;;;;;;4.05;0.77;;;8.60;89.00;;;;;;5021387;28;20475;-81
2023/10/16 07:03:16;;;;;;;4.05;0.88;;;8.60;89.00;;;;;;5018445;28;20062;-82
2023/10/16 07:05:43;;;;;;;4.88;0.90;;;8.60;89.10;;;;;;5019144;28;20045;-81
2023/10/16 07:08:16;;;;;;;3.73;0.80;;;8.60;89.10;;;;;;5038858;28;20050;-81
2023/10/16 07:10:48;;;;;;;3.17;0.77;;;8.60;89.20;;;;;;5018716;28;20742;-81
2023/10/16 07:13:26;;;;;;;3.15;0.65;;;8.70;89.20;;;;;;5024056;28;20098;-81
2023/10/16 07:15:56;;;;;;;4.80;0.93;;;8.70;89.20;;;;;;5036737;28;20647;-80
2023/10/16 07:18:25;;;;;;;4.28;0.90;;;8.80;89.20;;;;;;5049557;28;20076;-80
2023/10/16 07:21:07;;;;;;;4.87;0.90;;;8.80;89.30;;;;;;5032880;28;20050;-80
2023/10/16 07:23:37;;;;;;;4.53;0.85;;;8.80;89.20;;;;;;5026639;28;20344;-80
2023/10/16 07:26:06;;;;;;;6.53;0.65;;;8.80;89.20;;;;;;5028820;28;20120;-79
2023/10/16 07:28:33;;;;;;;3.65;0.57;;;8.80;89.10;;;;;;5036682;28;20054;-80
2023/10/16 07:31:02;;;;;;;4.40;1.00;;;8.80;89.20;;;;;;5046732;28;20049;-82
2023/10/16 07:33:30;;;;;;;4.50;1.00;;;8.90;89.20;;;;;;5047664;28;20057;-82
2023/10/16 07:35:58;;;;;;;3.80;0.80;;;8.90;89.30;;;;;;5029832;28;20284;-80
2023/10/16 07:38:28;;;;;;;4.75;0.80;;;8.90;89.30;;;;;;5031017;28;20805;-78
2023/10/16 07:40:58;;;;;;;3.83;0.60;;;9.00;89.30;;;;;;5027615;28;20556;-81
2023/10/16 07:43:27;;;;;;;3.60;0.50;;;9.00;89.30;;;;;;5009879;28;21031;-81
2023/10/16 07:46:15;;;;;;;3.07;0.53;;;9.00;89.30;;;;;;5025925;28;20058;-79
2023/10/16 07:48:45;;;;;;;3.90;0.77;;;9.00;89.30;;;;;;5026665;28;20770;-82
2023/10/16 07:51:12;;;;;;;4.60;0.63;;;9.00;89.50;;;;;;5025161;28;20053;-83
2023/10/16 07:53:42;;;;;;;7.47;0.88;;;9.10;89.60;;;;;;5008033;28;20054;-79
2023/10/16 07:56:19;;;;;;;3.63;0.57;;;9.10;89.60;;;;;;5008616;28;20469;-83
2023/10/16 07:58:48;;;;;;;3.67;0.53;;;9.20;89.70;;;;;;5025317;28;20050;-84
2023/10/16 08:01:32;;;;;;;3.97;0.60;;;9.20;89.80;;;;;;5011125;28;20260;-80
2023/10/16 08:03:59;;;;;;;0.95;0.20;;;9.20;89.90;;;;;;5027513;28;20491;-82
2023/10/16 08:06:28;;;;;;;3.17;0.40;;;9.20;90.00;;;;;;5027177;28;20058;-81
2023/10/16 08:11:42;;;;;;;6.07;0.80;;;9.20;89.80;;;;;;5007097;28;20055;-82
2023/10/16 08:14:08;;;;;;;3.05;0.32;;;9.20;89.90;;;;;;5008037;28;21025;-80
2023/10/16 08:16:38;;;;;;;5.78;0.80;;;9.30;89.80;;;;;;4991337;28;20047;-81
2023/10/16 08:19:14;;;;;;;3.65;0.40;;;9.40;89.80;;;;;;5007742;28;20046;-81
2023/10/16 08:21:43;;;;;;;5.90;0.70;;;9.40;89.80;;;;;;5008880;28;20058;-79
2023/10/16 08:24:43;;;;;;;3.57;0.47;;;9.40;89.90;;;;;;4993055;28;20417;-81
2023/10/16 08:27:19;;;;;;;3.67;0.43;;;9.40;90.00;;;;;;5031651;28;20284;-80
2023/10/16 08:29:54;;;;;;;6.05;0.80;;;9.50;90.10;;;;;;5028048;28;20217;-81
2023/10/16 08:35:09;;;;;;;3.50;0.50;;;9.60;90.00;;;;;;5010683;28;20042;-84
2023/10/16 08:37:40;;;;;;;3.17;0.40;;;9.60;90.10;;;;;;5010233;28;20105;-84
2023/10/16 08:40:18;;;;;;;5.05;0.60;;;9.60;90.10;;;;;;5010559;28;20779;-83
2023/10/16 08:43:00;;;;;;;3.33;0.40;;;9.70;90.00;;;;;;5038732;28;20057;-82
2023/10/16 08:45:29;;;;;;;2.10;0.30;;;9.70;89.90;;;;;;5026433;28;20061;-80
2023/10/16 08:47:58;;;;;;;3.53;0.52;;;9.80;89.90;;;;;;5010153;28;20042;-82
2023/10/16 08:50:40;;;;;;;8.17;0.70;;;9.80;89.70;;;;;;5011026;28;20132;-83
2023/10/16 08:53:30;;;;;;;1.80;0.30;;;9.80;89.70;;;;;;5011267;28;20262;-81
2023/10/16 08:55:59;;;;;;;3.55;0.47;;;9.80;89.60;;;;;;5010574;28;20043;-83
2023/10/16 08:58:27;;;;;;;2.00;0.40;;;9.90;89.30;;;;;;5033368;28;20772;-86
2023/10/16 09:00:57;;;;;;;4.80;0.60;;;9.90;89.20;;;;;;5037856;28;20065;-83
2023/10/16 09:03:24;;;;;;;4.47;0.53;;;10.00;89.00;;;;;;5013897;28;20050;-83
2023/10/16 09:05:51;;;;;;;3.50;0.30;;;10.00;88.90;;;;;;5013836;28;20762;-83
2023/10/16 09:08:19;;;;;;;3.67;0.60;;;10.00;88.60;;;;;;5029338;28;20134;-82
2023/10/16 09:10:48;;;;;;;2.35;0.32;;;10.10;88.50;;;;;;5029691;28;20053;-82
2023/10/16 09:13:17;;;;;;;3.97;0.60;;;10.10;88.40;;;;;;5030141;28;20054;-82
2023/10/16 09:15:48;;;;;;;4.57;0.60;;;10.10;87.90;;;;;;5012195;28;20955;-81
2023/10/16 09:18:15;;;;;;;5.93;0.70;;;10.20;87.70;;;;;;5029571;28;20269;-81
2023/10/16 09:20:43;;;;;;;5.50;0.80;;;10.20;87.70;;;;;;5028968;28;20153;-82
2023/10/16 09:23:14;;;;;;;4.32;0.60;;;10.20;87.60;;;;;;5012047;28;20064;-81
2023/10/16 09:25:45;;;;;;;5.28;0.50;;;10.20;87.60;;;;;;5012631;28;20054;-81
2023/10/16 09:28:18;;;;;;;4.23;0.70;;;10.20;87.50;;;;;;5013015;28;20073;-81
2023/10/16 09:30:48;;;;;;;5.30;0.57;;;10.30;87.20;;;;;;5030548;28;20277;-81
2023/10/16 09:33:16;;;;;;;3.55;0.50;;;10.30;87.20;;;;;;5012862;28;20065;-82
2023/10/16 09:36:21;;;;;;;5.68;0.63;;;10.30;87.20;;;;;;5015489;28;20054;-81
2023/10/16 09:38:51;;;;;;;3.45;0.50;;;10.30;87.10;;;;;;5012357;28;20069;-81
2023/10/16 09:44:09;;;;;;;4.30;0.77;;;10.40;87.10;;;;;;4991914;28;21183;-81
2023/10/16 09:46:52;;;;;;;4.07;0.60;;;10.40;87.20;;;;;;5021884;28;20129;-82
2023/10/16 09:49:21;;;;;;;4.65;0.50;;;10.40;87.10;;;;;;5011790;28;20053;-81
2023/10/16 09:51:49;;;;;;;5.18;0.50;;;10.50;86.90;;;;;;5012161;28;20140;-84
2023/10/16 09:54:23;;;;;;;3.43;0.40;;;10.50;87.00;;;;;;5030172;28;20058;-84
2023/10/16 09:56:59;;;;;;;4.85;0.60;;;10.50;86.70;;;;;;5012431;28;20262;-84
2023/10/16 09:59:31;;;;;;;5.38;0.63;;;10.50;86.40;;;;;;5028537;28;20057;-83
2023/10/16 10:02:08;;;;;;;6.80;0.80;;;10.60;86.40;;;;;;5021028;28;20663;-82
2023/10/16 10:04:36;;;;;;;3.95;0.50;;;10.60;86.40;;;;;;5018918;28;20049;-82
2023/10/16 10:07:13;;;;;;;5.80;0.50;;;10.70;86.30;;;;;;5034855;28;20510;-81
2023/10/16 10:09:45;;;;;;;5.50;0.40;;;10.70;85.90;;;;;;5006377;28;20274;-81
2023/10/16 10:12:42;;;;;;;3.67;0.40;;;10.70;85.30;;;;;;5011426;28;20052;-82
2023/10/16 10:15:21;;;;;;;2.70;0.50;;;10.80;85.20;;;;;;4954742;28;20525;-81
2023/10/16 10:17:54;;;;;;;3.33;0.45;;;10.80;85.20;;;;;;5025618;28;20038;-81
2023/10/16 10:20:25;;;;;;;4.70;0.40;;;10.90;85.00;;;;;;5041347;28;20050;-81
2023/10/16 10:22:59;;;;;;;4.50;0.55;;;10.90;85.10;;;;;;5011756;28;20372;-82
2023/10/16 10:25:35;;;;;;;4.72;0.68;;;11.00;84.20;;;;;;5010158;28;20077;-81
2023/10/16 10:28:16;;;;;;;5.18;0.50;;;11.00;83.50;;;;;;5023634;28;20053;-81
2023/10/16 10:30:44;;;;;;;3.33;0.77;;;11.10;83.60;;;;;;5016843;28;20074;-81
2023/10/16 10:33:13;;;;;;;4.10;0.57;;;11.10;82.90;;;;;;5014704;28;20050;-81
2023/10/16 10:35:43;;;;;;;2.78;0.40;;;11.10;82.80;;;;;;5021278;28;20838;-82
2023/10/16 10:38:20;;;;;;;4.47;0.40;;;11.10;82.50;;;;;;5026425;28;20049;-81
2023/10/16 10:41:14;;;;;;;4.45;0.60;;;11.10;82.10;;;;;;5027680;28;20049;-81
2023/10/16 10:43:46;;;;;;;7.75;0.63;;;11.10;82.70;;;;;;5029729;28;20042;-81
2023/10/16 10:46:15;;;;;;;6.43;0.67;;;11.10;82.90;;;;;;5026740;28;20081;-81
2023/10/16 10:48:46;;;;;;;4.30;0.60;;;11.20;83.00;;;;;;5010674;28;20283;-81
2023/10/16 10:51:14;;;;;;;6.78;0.57;;;11.20;83.20;;;;;;5028418;28;20046;-81
2023/10/16 10:53:55;;;;;;;4.40;0.68;;;11.30;83.20;;;;;;5011628;28;20057;-80
2023/10/16 10:56:23;;;;;;;4.85;0.63;;;11.30;83.30;;;;;;5029460;28;20058;-81
2023/10/16 10:58:50;;;;;;;4.57;0.63;;;11.30;83.30;;;;;;5027976;28;20575;-81
2023/10/16 11:01:26;;;;;;;6.53;0.60;;;11.40;83.30;;;;;;5010092;28;20336;-81
2023/10/16 11:03:55;;;;;;;5.57;0.50;;;11.40;83.30;;;;;;5026697;28;20132;-80
2023/10/16 11:06:39;;;;;;;3.03;0.75;;;11.50;83.40;;;;;;5028105;28;20057;-80
2023/10/16 11:09:12;;;;;;;4.00;0.60;;;11.50;83.50;;;;;;5028180;28;20567;-81
2023/10/16 11:11:44;;;;;;;4.30;0.60;;;11.50;82.90;;;;;;4991536;28;20050;-80
2023/10/16 11:14:13;;;;;;;4.35;0.43;;;11.50;82.70;;;;;;5020728;28;20277;-81
2023/10/16 11:16:44;;;;;;;4.53;0.65;;;11.60;82.80;;;;;;5020266;28;20058;-80
2023/10/16 11:19:27;;;;;;;4.03;0.50;;;11.70;83.00;;;;;;5010279;28;20064;-81
2023/10/16 11:21:56;;;;;;;3.50;0.40;;;11.70;82.90;;;;;;5026546;28;20050;-81
2023/10/16 11:24:24;;;;;;;2.80;0.73;;;11.70;83.00;;;;;;5026344;28;20053;-81
2023/10/16 11:26:54;;;;;;;5.32;0.52;;;11.90;83.10;;;;;;5026037;28;20250;-80
2023/10/16 11:29:21;;;;;;;3.35;0.40;;;11.90;82.80;;;;;;5026114;28;20073;-83
2023/10/16 11:31:52;;;;;;;4.13;0.47;;;11.90;82.50;;;;;;5010045;28;20074;-81
2023/10/16 11:34:24;;;;;;;3.13;0.57;;;12.00;81.90;;;;;;5027495;28;20853;-82
2023/10/16 11:36:51;;;;;;;3.87;0.50;;;12.00;80.70;;;;;;5011297;28;20053;-80
2023/10/16 11:39:22;;;;;;;3.42;0.20;;;12.00;79.40;;;;;;5009880;28;20285;-78
2023/10/16 11:41:51;;;;;;;4.90;0.70;;;12.00;79.00;;;;;;5029866;28;20116;-82
2023/10/16 11:44:19;;;;;;;4.28;0.55;;;12.10;79.20;;;;;;5026467;28;20050;-83
2023/10/16 11:46:51;;;;;;;3.72;0.40;;;12.10;78.00;;;;;;5026592;28;20140;-81
2023/10/16 11:49:32;;;;;;;3.87;0.30;;;12.10;77.50;;;;;;5011186;28;20050;-81
2023/10/16 11:52:08;;;;;;;3.75;0.52;;;12.10;76.00;;;;;;5026828;28;20305;-83
2023/10/16 11:54:39;;;;;;;5.10;0.55;;;12.20;76.70;;;;;;5011025;28;20088;-84
2023/10/16 11:57:07;;;;;;;4.53;0.50;;;12.20;76.90;;;;;;5026323;28;20428;-83
2023/10/16 11:59:34;;;;;;;2.92;0.38;;;12.20;77.60;;;;;;5009039;28;20602;-85
2023/10/16 12:02:10;;;;;;;3.27;0.40;;;12.20;77.40;;;;;;5025693;28;20108;-84
2023/10/16 12:04:40;;;;;;;3.55;0.40;;;12.20;76.50;;;;;;5009113;28;20273;-82
2023/10/16 12:07:09;;;;;;;4.50;0.40;;;12.20;77.50;;;;;;5003664;28;20046;-86
2023/10/16 12:09:38;;;;;;;2.80;0.30;;;12.20;77.20;;;;;;5010686;28;20104;-85
2023/10/16 12:12:06;;;;;;;3.53;0.50;;;12.30;77.10;;;;;;5026940;28;20050;-82
2023/10/16 12:14:37;;;;;;;3.63;0.67;;;12.30;76.80;;;;;;5010646;28;20053;-84
2023/10/16 12:17:06;;;;;;;3.72;0.50;;;12.30;76.80;;;;;;5011101;28;21155;-82
2023/10/16 12:19:35;;;;;;;2.90;0.30;;;12.30;75.20;;;;;;5026882;28;20100;-83
2023/10/16 12:22:03;;;;;;;3.65;0.40;;;12.30;74.50;;;;;;5010721;28;20050;-84
2023/10/16 12:24:31;;;;;;;3.40;0.30;;;12.30;74.70;;;;;;5027019;28;20108;-84
2023/10/16 12:27:01;;;;;;;2.73;0.37;;;12.30;74.80;;;;;;5008887;28;20053;-85
2023/10/16 12:29:28;;;;;;;4.97;0.40;;;12.30;74.70;;;;;;5025381;28;20261;-83
2023/10/16 12:31:55;;;;;;;3.97;0.40;;;12.30;74.60;;;;;;5025842;28;20717;-86
2023/10/16 12:34:23;;;;;;;3.10;0.40;;;12.30;74.40;;;;;;5025824;28;20058;-81
2023/10/16 12:36:51;;;;;;;4.05;0.30;;;12.30;73.20;;;;;;5023196;28;20077;-82
2023/10/16 12:39:24;;;;;;;3.97;0.50;;;12.30;73.80;;;;;;5006751;28;20973;-81
2023/10/16 12:41:54;;;;;;;2.67;0.40;;;12.30;73.20;;;;;;4999657;28;20257;-81
2023/10/16 12:44:23;;;;;;;4.72;0.30;;;12.30;73.70;;;;;;5018956;28;20065;-81
2023/10/16 12:46:52;;;;;;;3.03;0.22;;;12.30;73.50;;;;;;5009059;28;20058;-81
2023/10/16 12:49:19;;;;;;;3.00;0.30;;;12.30;74.30;;;;;;5014274;28;20046;-83
2023/10/16 12:51:47;;;;;;;4.63;0.33;;;12.30;74.20;;;;;;5008616;28;20054;-84
2023/10/16 12:54:15;;;;;;;3.63;0.65;;;12.40;73.30;;;;;;5022032;28;20286;-82
2023/10/16 12:56:44;;;;;;;5.65;0.50;;;12.40;74.30;;;;;;5025096;28;20050;-83
2023/10/16 12:59:11;;;;;;;2.95;0.50;;;12.40;74.70;;;;;;5041088;28;20794;-81
2023/10/16 13:01:39;;;;;;;4.43;0.60;;;12.50;74.70;;;;;;5021125;28;20524;-82
2023/10/16 13:04:13;;;;;;;3.73;0.40;;;12.50;72.90;;;;;;5060321;28;20086;-81
2023/10/16 13:06:43;;;;;;;3.88;0.35;;;12.50;73.20;;;;;;5021341;28;20277;-84
2023/10/16 13:09:15;;;;;;;4.50;0.50;;;12.50;74.10;;;;;;5007331;28;20493;-84
2023/10/16 13:11:43;;;;;;;2.88;0.40;;;12.50;74.40;;;;;;5026586;28;20162;-82
2023/10/16 13:14:12;;;;;;;4.45;0.50;;;12.60;74.30;;;;;;5010107;28;20136;-82
2023/10/16 13:16:40;;;;;;;3.50;0.60;;;12.60;73.30;;;;;;5027726;28;20050;-81
2023/10/16 13:19:09;;;;;;;3.25;0.45;;;12.70;73.50;;;;;;5027122;28;20274;-81
2023/10/16 13:21:41;;;;;;;3.70;0.47;;;12.70;73.90;;;;;;5041873;28;20072;-81
2023/10/16 13:24:11;;;;;;;5.05;0.47;;;12.70;74.00;;;;;;5008391;28;20636;-81
2023/10/16 13:26:38;;;;;;;4.00;0.50;;;12.80;74.00;;;;;;5019703;28;20310;-80
2023/10/16 13:29:08;;;;;;;3.90;0.87;;;12.80;74.10;;;;;;5008234;28;20050;-81
2023/10/16 13:31:37;;;;;;;3.30;0.45;;;12.90;74.00;;;;;;5050656;28;20308;-81
2023/10/16 13:34:04;;;;;;;4.18;0.50;;;12.90;74.30;;;;;;5025986;28;20061;-81
2023/10/16 13:36:35;;;;;;;4.38;0.40;;;12.90;74.30;;;;;;5026801;28;20105;-80
2023/10/16 13:39:08;;;;;;;4.68;0.50;;;12.90;73.80;;;;;;5013407;28;20058;-80
2023/10/16 13:41:37;;;;;;;4.90;0.43;;;12.90;72.60;;;;;;5029160;28;20046;-82
2023/10/16 13:44:06;;;;;;;4.65;0.47;;;13.00;73.10;;;;;;5013254;28;20822;-80
2023/10/16 13:46:33;;;;;;;4.80;0.50;;;13.00;73.80;;;;;;5029841;28;20156;-80
2023/10/16 13:49:00;;;;;;;3.30;0.32;;;13.00;73.00;;;;;;5029697;28;20500;-81
2023/10/16 13:51:27;;;;;;;3.88;0.38;;;13.10;73.30;;;;;;5031494;28;20464;-81
2023/10/16 13:53:54;;;;;;;2.93;0.43;;;13.10;73.10;;;;;;5013151;28;20050;-82
2023/10/16 13:56:22;;;;;;;2.70;0.45;;;13.00;73.50;;;;;;5012820;28;20950;-87
2023/10/16 13:58:50;;;;;;;2.85;0.43;;;13.00;72.90;;;;;;5013523;28;20053;-82
2023/10/16 14:01:18;;;;;;;4.90;0.63;;;13.10;73.20;;;;;;5003634;28;20046;-79
2023/10/16 14:03:45;;;;;;;3.35;0.40;;;13.10;73.30;;;;;;5009690;28;20049;-80
2023/10/16 14:06:22;;;;;;;4.13;0.50;;;13.10;73.60;;;;;;5007938;28;20061;-80
2023/10/16 14:08:50;;;;;;;4.10;0.57;;;13.10;73.80;;;;;;5007974;28;20273;-80
2023/10/16 14:11:17;;;;;;;5.88;0.95;;;13.10;73.80;;;;;;5007965;28;20086;-80
2023/10/16 14:13:44;;;;;;;6.75;0.85;;;13.10;73.50;;;;;;5007666;28;20062;-80
2023/10/16 14:16:17;;;;;;;3.20;0.55;;;13.10;73.40;;;;;;4991683;28;20580;-80
2023/10/16 14:18:46;;;;;;;4.93;0.70;;;13.10;73.60;;;;;;4991991;28;20069;-81
2023/10/16 14:21:14;;;;;;;7.55;1.67;;;13.20;73.80;;;;;;4992682;28;20946;-82
2023/10/16 14:24:07;;;;;;;4.30;0.60;;;13.20;74.20;;;;;;5012067;28;20056;-81
2023/10/16 14:26:36;;;;;;;4.43;0.70;;;13.30;73.80;;;;;;5010416;28;20532;-81
2023/10/16 14:29:03;;;;;;;4.47;0.65;;;13.30;73.50;;;;;;5053752;28;20523;-81
2023/10/16 14:31:33;;;;;;;5.23;0.40;;;13.30;72.80;;;;;;5022420;28;20598;-81
2023/10/16 14:34:05;;;;;;;3.97;0.50;;;13.30;73.00;;;;;;5022154;28;20281;-81